createdAt,value
2019-06-20T00:00:07.211Z,70.40
2019-06-20T00:01:43.170Z,66.40
2019-06-20T00:03:20.767Z,69.40
2019-06-20T00:04:56.621Z,67.80
2019-06-20T00:06:32.936Z,68.40
2019-06-20T00:08:11.322Z,68.80
2019-06-20T00:09:52.412Z,79.60
2019-06-20T00:11:28.857Z,77.60
2019-06-20T00:13:06.142Z,67.60
2019-06-20T00:14:42.804Z,73.20
2019-06-20T00:16:19.785Z,73.80
2019-06-20T00:17:55.958Z,74.40
2019-06-20T00:19:32.882Z,75.60
2019-06-20T00:21:10.300Z,68.80
2019-06-20T00:22:46.569Z,70.20
2019-06-20T00:24:22.579Z,71.80
2019-06-20T00:25:58.631Z,77.00
2019-06-20T00:27:35.553Z,79.80
2019-06-20T00:29:14.552Z,68.60
2019-06-20T00:30:50.983Z,71.20
2019-06-20T00:32:27.720Z,74.60
2019-06-20T00:34:05.833Z,72.00
2019-06-20T00:35:43.351Z,86.83
2019-06-20T00:37:20.241Z,79.60
2019-06-20T00:38:58.494Z,70.60
2019-06-20T00:40:34.190Z,72.80
2019-06-20T00:42:10.811Z,77.00
2019-06-20T00:43:46.697Z,76.40
2019-06-20T00:45:24.687Z,71.40
2019-06-20T00:47:01.535Z,80.00
2019-06-20T00:48:40.783Z,72.20
2019-06-20T00:50:17.691Z,74.80
2019-06-20T00:51:54.653Z,86.17
2019-06-20T00:53:30.422Z,72.20
2019-06-20T00:55:07.331Z,78.83
2019-06-20T00:56:42.986Z,78.17
2019-06-20T00:58:19.513Z,84.00
2019-06-20T00:59:55.241Z,73.20
2019-06-20T01:01:32.734Z,80.50
2019-06-20T01:03:09.246Z,87.00
2019-06-20T01:04:45.274Z,78.67
2019-06-20T01:06:21.168Z,77.40
2019-06-20T01:07:57.772Z,76.80
2019-06-20T01:09:33.203Z,86.50
2019-06-20T01:11:10.271Z,84.67
2019-06-20T01:12:46.238Z,87.20
2019-06-20T01:14:22.077Z,72.00
2019-06-20T01:15:58.259Z,84.67
2019-06-20T01:17:33.908Z,71.80
2019-06-20T01:19:09.588Z,89.40
2019-06-20T01:20:45.433Z,85.83
2019-06-20T01:22:20.755Z,76.40
2019-06-20T01:23:57.832Z,83.50
2019-06-20T01:25:39.651Z,88.00
2019-06-20T01:27:15.576Z,82.83
2019-06-20T01:28:50.957Z,76.00
2019-06-20T01:30:27.227Z,84.80
2019-06-20T01:32:03.455Z,80.50
2019-06-20T01:33:39.840Z,81.17
2019-06-20T01:35:15.583Z,77.80
2019-06-20T01:36:51.633Z,84.00
2019-06-20T01:38:28.029Z,81.33
2019-06-20T01:40:04.028Z,92.20
2019-06-20T01:41:39.913Z,84.40
2019-06-20T01:43:18.028Z,89.40
2019-06-20T01:44:53.837Z,83.80
2019-06-20T01:46:31.069Z,78.17
2019-06-20T01:48:07.182Z,88.50
2019-06-20T01:49:43.335Z,96.00
2019-06-20T01:51:18.878Z,92.00
2019-06-20T01:52:55.781Z,96.40
2019-06-20T01:54:31.602Z,89.00
2019-06-20T01:56:07.626Z,93.00
2019-06-20T01:57:43.092Z,99.00
2019-06-20T01:59:19.172Z,90.40
2019-06-20T02:00:55.146Z,103.00
2019-06-20T02:02:31.842Z,102.00
2019-06-20T02:04:07.807Z,100.40
2019-06-20T02:05:45.052Z,102.00
2019-06-20T02:07:20.612Z,104.80
2019-06-20T02:08:56.950Z,104.20
2019-06-20T02:10:32.193Z,112.80
2019-06-20T02:12:08.786Z,99.20
2019-06-20T02:13:44.536Z,103.60
2019-06-20T02:15:21.037Z,106.20
2019-06-20T02:16:58.184Z,108.00
2019-06-20T02:18:34.659Z,100.40
2019-06-20T02:20:09.893Z,108.00
2019-06-20T02:21:46.067Z,112.33
2019-06-20T02:23:22.851Z,104.17
2019-06-20T02:24:59.626Z,107.00
2019-06-20T02:26:35.617Z,112.67
2019-06-20T02:28:13.243Z,114.67
2019-06-20T02:29:49.081Z,116.20
2019-06-20T02:31:25.805Z,120.80
2019-06-20T02:33:02.018Z,109.00
2019-06-20T02:34:39.180Z,118.17
2019-06-20T02:36:15.194Z,113.40
2019-06-20T02:37:52.445Z,117.40
2019-06-20T02:39:29.962Z,89.67
2019-06-20T02:41:06.819Z,111.60
2019-06-20T02:42:42.667Z,107.33
2019-06-20T02:44:30.103Z,113.00
2019-06-20T02:45:56.167Z,102.17
2019-06-20T02:47:33.281Z,117.80
2019-06-20T02:49:12.188Z,112.83
2019-06-20T02:50:49.035Z,106.17
2019-06-20T02:52:25.838Z,103.80
2019-06-20T02:54:02.106Z,113.50
2019-06-20T02:55:37.797Z,100.17
2019-06-20T02:57:14.438Z,117.17
2019-06-20T02:58:49.774Z,110.80
2019-06-20T03:00:35.619Z,115.17
2019-06-20T03:02:12.054Z,110.60
2019-06-20T03:03:47.696Z,107.60
2019-06-20T03:05:23.799Z,111.80
2019-06-20T03:06:58.959Z,107.50
2019-06-20T03:08:35.489Z,106.50
2019-06-20T03:10:11.279Z,108.60
2019-06-20T03:11:47.093Z,111.33
2019-06-20T03:13:22.774Z,112.33
2019-06-20T03:14:58.616Z,119.67
2019-06-20T03:16:34.201Z,123.60
2019-06-20T03:18:10.811Z,117.40
2019-06-20T03:19:46.088Z,115.67
2019-06-20T03:21:21.831Z,95.33
2019-06-20T03:22:56.945Z,108.83
2019-06-20T03:24:33.152Z,116.17
2019-06-20T03:26:09.134Z,113.83
2019-06-20T03:27:44.977Z,118.00
2019-06-20T03:29:20.431Z,120.67
2019-06-20T03:30:56.405Z,110.17
2019-06-20T03:32:31.971Z,113.67
2019-06-20T03:34:08.027Z,114.50
2019-06-20T03:35:43.541Z,108.33
2019-06-20T03:37:19.756Z,112.33
2019-06-20T03:38:55.069Z,110.83
2019-06-20T03:40:30.853Z,116.50
2019-06-20T03:42:06.294Z,113.00
2019-06-20T03:43:42.368Z,115.80
2019-06-20T03:45:17.501Z,108.80
2019-06-20T03:46:53.284Z,114.20
2019-06-20T03:48:28.538Z,108.20
2019-06-20T03:50:07.025Z,120.67
2019-06-20T03:51:42.287Z,117.40
2019-06-20T03:53:18.375Z,116.33
2019-06-20T03:54:54.162Z,116.00
2019-06-20T03:56:30.082Z,110.83
2019-06-20T03:58:05.889Z,110.83
2019-06-20T03:59:41.856Z,115.40
2019-06-20T04:01:17.559Z,118.20
2019-06-20T04:02:53.621Z,116.83
2019-06-20T04:04:29.231Z,118.33
2019-06-20T04:06:05.048Z,117.17
2019-06-20T04:07:40.132Z,114.00
2019-06-20T04:09:16.178Z,115.60
2019-06-20T04:10:51.654Z,96.60
2019-06-20T04:12:27.761Z,118.17
2019-06-20T04:14:03.232Z,112.80
2019-06-20T04:15:39.235Z,124.00
2019-06-20T04:17:14.374Z,118.00
2019-06-20T04:18:50.183Z,117.33
2019-06-20T04:20:26.221Z,114.17
2019-06-20T04:22:02.516Z,112.67
2019-06-20T04:23:38.097Z,119.00
2019-06-20T04:25:14.141Z,120.80
2019-06-20T04:26:49.782Z,120.33
2019-06-20T04:28:25.824Z,117.60
2019-06-20T04:30:01.093Z,109.83
2019-06-20T04:31:38.278Z,115.50
2019-06-20T04:33:13.556Z,120.80
2019-06-20T04:34:49.309Z,121.67
2019-06-20T04:36:24.452Z,122.00
2019-06-20T04:38:00.559Z,118.40
2019-06-20T04:39:35.950Z,121.00
2019-06-20T04:41:11.823Z,122.60
2019-06-20T04:42:47.831Z,122.00
2019-06-20T04:44:23.576Z,125.83
2019-06-20T04:46:10.543Z,119.80
2019-06-20T04:47:46.265Z,121.83
2019-06-20T04:49:22.523Z,114.00
2019-06-20T04:50:58.568Z,131.40
2019-06-20T04:52:33.676Z,124.33
2019-06-20T04:54:09.913Z,126.20
2019-06-20T04:55:46.116Z,114.67
2019-06-20T04:57:22.970Z,117.67
2019-06-20T04:58:58.760Z,128.00
2019-06-20T05:00:35.027Z,118.67
2019-06-20T05:02:13.968Z,112.83
2019-06-20T05:03:48.804Z,123.00
2019-06-20T05:05:24.588Z,125.20
2019-06-20T05:07:06.928Z,126.40
2019-06-20T05:08:42.761Z,124.50
2019-06-20T05:10:18.437Z,126.60
2019-06-20T05:11:54.490Z,127.20
2019-06-20T05:13:31.688Z,132.80
2019-06-20T05:15:08.474Z,134.40
2019-06-20T05:16:44.028Z,121.40
2019-06-20T05:18:20.145Z,125.20
2019-06-20T05:19:55.889Z,134.40
2019-06-20T05:21:33.005Z,119.20
2019-06-20T05:23:09.039Z,129.20
2019-06-20T05:24:45.185Z,124.80
2019-06-20T05:26:21.198Z,135.50
2019-06-20T05:27:57.363Z,123.60
2019-06-20T05:29:33.202Z,131.60
2019-06-20T05:31:09.651Z,122.00
2019-06-20T05:32:45.158Z,131.80
2019-06-20T05:34:21.668Z,128.60
2019-06-20T05:35:57.812Z,129.50
2019-06-20T05:37:34.921Z,131.60
2019-06-20T05:39:10.657Z,126.20
2019-06-20T05:40:46.655Z,126.33
2019-06-20T05:42:22.416Z,132.33
2019-06-20T05:43:59.612Z,127.50
2019-06-20T05:45:35.268Z,142.33
2019-06-20T05:47:13.866Z,148.50
2019-06-20T05:48:48.620Z,140.50
2019-06-20T05:50:25.164Z,175.67
2019-06-20T05:52:00.924Z,210.67
2019-06-20T05:53:37.680Z,225.83
2019-06-20T05:55:12.967Z,235.83
2019-06-20T05:56:49.006Z,232.00
2019-06-20T05:58:24.796Z,232.83
2019-06-20T06:00:01.162Z,226.83
2019-06-20T06:01:36.835Z,242.33
2019-06-20T06:03:13.849Z,241.33
2019-06-20T06:04:49.963Z,235.00
2019-06-20T06:06:26.292Z,227.50
2019-06-20T06:08:01.995Z,233.57
2019-06-20T06:09:38.256Z,222.17
2019-06-20T06:11:13.554Z,221.33
2019-06-20T06:12:49.674Z,218.00
2019-06-20T06:14:26.106Z,225.00
2019-06-20T06:16:02.372Z,204.67
2019-06-20T06:17:38.671Z,197.17
2019-06-20T06:19:15.167Z,181.33
2019-06-20T06:20:52.440Z,159.83
2019-06-20T06:22:29.199Z,142.60
2019-06-20T06:24:06.327Z,141.80
2019-06-20T06:25:47.041Z,128.83
2019-06-20T06:27:23.784Z,111.50
2019-06-20T06:29:00.047Z,89.00
2019-06-20T06:30:36.150Z,80.40
2019-06-20T06:32:11.980Z,84.20
2019-06-20T06:33:48.527Z,87.00
2019-06-20T06:35:23.813Z,86.20
2019-06-20T06:37:00.564Z,71.25
2019-06-20T06:38:36.301Z,80.40
2019-06-20T06:40:12.688Z,95.80
2019-06-20T06:41:48.951Z,95.60
2019-06-20T06:43:25.071Z,103.20
2019-06-20T06:45:00.687Z,123.25
2019-06-20T06:46:44.853Z,105.75
2019-06-20T06:48:14.847Z,120.20
2019-06-20T06:49:51.004Z,122.40
2019-06-20T06:51:26.870Z,119.00
2019-06-20T06:53:03.830Z,116.75
2019-06-20T06:54:39.236Z,118.40
2019-06-20T06:56:15.251Z,125.25
2019-06-20T06:57:50.708Z,122.00
2019-06-20T06:59:27.407Z,101.75
2019-06-20T07:01:03.389Z,101.80
2019-06-20T07:02:39.919Z,111.00
2019-06-20T07:04:15.719Z,116.50
2019-06-20T07:05:51.804Z,125.40
2019-06-20T07:07:28.655Z,114.00
2019-06-20T07:09:05.350Z,119.25
2019-06-20T07:10:41.544Z,97.00
2019-06-20T07:12:17.962Z,124.00
2019-06-20T07:13:54.926Z,118.50
2019-06-20T07:15:31.845Z,107.60
2019-06-20T07:17:07.511Z,101.25
2019-06-20T07:18:44.269Z,80.25
2019-06-20T07:20:20.226Z,72.00
2019-06-20T07:21:58.086Z,61.25
2019-06-20T07:23:35.310Z,60.25
2019-06-20T07:25:15.605Z,67.75
2019-06-20T07:26:51.761Z,66.25
2019-06-20T07:28:28.484Z,62.00
2019-06-20T07:30:06.893Z,61.25
2019-06-20T07:31:46.604Z,58.40
2019-06-20T07:33:23.720Z,54.60
2019-06-20T07:35:01.856Z,56.00
2019-06-20T07:36:38.948Z,59.60
2019-06-20T07:38:25.947Z,55.60
2019-06-20T07:40:02.731Z,61.50
2019-06-20T07:41:47.138Z,51.20
2019-06-20T07:43:23.772Z,47.40
2019-06-20T07:44:59.642Z,52.50
2019-06-20T07:46:37.486Z,52.20
2019-06-20T07:48:13.171Z,51.40
2019-06-20T07:49:50.792Z,49.20
2019-06-20T07:51:26.938Z,40.20
2019-06-20T07:53:03.230Z,40.00
2019-06-20T07:54:40.262Z,41.60
2019-06-20T07:56:19.869Z,34.60
2019-06-20T07:57:56.436Z,26.00
2019-06-20T07:59:32.817Z,11.00
2019-06-20T08:01:16.367Z,10.60
2019-06-20T08:02:51.975Z,9.00
2019-06-20T08:04:28.631Z,22.40
2019-06-20T08:06:09.982Z,51.20
2019-06-20T08:07:50.501Z,57.00
2019-06-20T08:09:44.933Z,57.40
2019-06-20T08:11:16.645Z,41.60
2019-06-20T08:12:55.192Z,26.00
2019-06-20T08:14:32.863Z,10.40
2019-06-20T08:16:09.666Z,12.40
2019-06-20T08:17:46.311Z,15.20
2019-06-20T08:19:27.169Z,13.20
2019-06-20T08:21:05.835Z,13.60
2019-06-20T08:22:49.630Z,15.60
2019-06-20T08:24:33.871Z,13.00
2019-06-20T08:26:09.561Z,15.40
2019-06-20T08:27:59.437Z,23.00
2019-06-20T08:29:37.886Z,19.80
2019-06-20T08:31:14.614Z,21.40
2019-06-20T08:32:51.293Z,27.20
2019-06-20T08:34:27.951Z,31.40
2019-06-20T08:36:06.572Z,29.20
2019-06-20T08:37:45.678Z,30.40
2019-06-20T08:39:22.436Z,35.80
2019-06-20T08:40:58.555Z,40.40
2019-06-20T08:42:39.789Z,41.60
2019-06-20T08:44:16.956Z,36.80
2019-06-20T08:45:56.135Z,41.00
2019-06-20T08:47:33.211Z,43.60
2019-06-20T08:49:09.978Z,43.80
2019-06-20T08:50:47.233Z,51.00
2019-06-20T08:52:25.062Z,53.60
2019-06-20T08:54:01.622Z,168.33
2019-06-20T08:55:40.982Z,46.00
2019-06-20T08:57:17.849Z,23.20
2019-06-20T08:58:55.732Z,5.00
2019-06-20T09:00:32.432Z,4.25
2019-06-20T09:02:09.366Z,8.80
2019-06-20T09:03:47.815Z,18.60
2019-06-20T09:05:29.582Z,51.40
2019-06-20T09:07:06.153Z,52.60
2019-06-20T09:08:41.336Z,49.20
2019-06-20T09:10:19.981Z,46.40
2019-06-20T09:11:58.594Z,58.00
2019-06-20T09:13:36.845Z,50.40
2019-06-20T09:15:13.481Z,39.80
2019-06-20T09:16:49.264Z,33.00
2019-06-20T09:18:26.689Z,36.20
2019-06-20T09:20:03.014Z,35.60
2019-06-20T09:21:39.424Z,31.20
2019-06-20T09:23:15.777Z,41.20
2019-06-20T09:24:55.165Z,38.40
2019-06-20T09:26:32.541Z,41.60
2019-06-20T09:28:13.157Z,37.60
2019-06-20T09:29:56.184Z,35.60
2019-06-20T09:31:45.813Z,30.00
2019-06-20T09:33:21.617Z,30.80
2019-06-20T09:34:59.241Z,32.00
2019-06-20T09:36:34.571Z,36.20
2019-06-20T09:38:10.564Z,37.00
2019-06-20T09:39:53.180Z,28.40
2019-06-20T09:41:31.082Z,32.40
2019-06-20T09:43:06.661Z,41.40
2019-06-20T09:44:43.680Z,47.80
2019-06-20T09:46:18.912Z,37.40
2019-06-20T09:47:56.036Z,37.00
2019-06-20T09:49:33.991Z,37.80
2019-06-20T09:51:10.077Z,37.20
2019-06-20T09:52:49.778Z,50.80
2019-06-20T09:54:23.730Z,61.40
2019-06-20T09:56:04.924Z,91.60
2019-06-20T09:57:42.272Z,55.00
2019-06-20T09:59:27.559Z,39.60
2019-06-20T10:00:57.828Z,3.00
2019-06-20T10:02:33.417Z,2.80
2019-06-20T10:04:10.435Z,1.00
2019-06-20T10:05:47.337Z,7.20
2019-06-20T10:07:25.536Z,20.00
2019-06-20T10:09:01.285Z,29.80
2019-06-20T10:10:37.295Z,18.80
2019-06-20T10:12:13.903Z,22.20
2019-06-20T10:13:54.283Z,20.80
2019-06-20T10:15:32.800Z,24.60
2019-06-20T10:17:09.710Z,33.80
2019-06-20T10:18:50.330Z,19.00
2019-06-20T10:20:27.891Z,16.80
2019-06-20T10:22:03.083Z,4.40
2019-06-20T10:23:40.035Z,3.80
2019-06-20T10:25:15.824Z,2.00
2019-06-20T10:26:55.135Z,1.50
2019-06-20T10:28:32.876Z,1.00
2019-06-20T10:30:17.139Z,9.40
2019-06-20T10:32:03.780Z,2.60
2019-06-20T10:33:57.203Z,85.80
2019-06-20T10:35:36.778Z,71.00
2019-06-20T10:37:12.874Z,98.00
2019-06-20T10:38:50.366Z,180.50
2019-06-20T10:40:28.065Z,80.20
2019-06-20T10:42:04.197Z,108.25
2019-06-20T10:43:40.256Z,154.00
2019-06-20T10:45:21.681Z,137.00
2019-06-20T10:46:58.142Z,129.00
2019-06-20T10:48:35.110Z,87.33
2019-06-20T10:50:15.696Z,63.33
2019-06-20T10:51:51.958Z,68.17
2019-06-20T10:53:33.452Z,71.33
2019-06-20T10:55:09.679Z,78.83
2019-06-20T10:56:45.800Z,80.00
2019-06-20T10:58:23.515Z,67.00
2019-06-20T11:00:01.016Z,70.83
2019-06-20T11:01:37.333Z,54.00
2019-06-20T11:03:15.837Z,44.40
2019-06-20T11:04:53.131Z,59.33
2019-06-20T11:06:30.093Z,57.83
2019-06-20T11:08:07.008Z,86.83
2019-06-20T11:09:45.221Z,86.00
2019-06-20T11:11:20.548Z,177.43
2019-06-20T11:12:57.512Z,250.00
2019-06-20T11:14:33.060Z,225.83
2019-06-20T11:16:09.846Z,254.14
2019-06-20T11:17:46.316Z,71.20
2019-06-20T11:19:22.480Z,53.40
2019-06-20T11:20:57.765Z,2.00
2019-06-20T11:22:34.094Z,1.20
2019-06-20T11:24:10.308Z,19.40
2019-06-20T11:25:46.668Z,28.20
2019-06-20T11:27:21.973Z,25.60
2019-06-20T11:28:57.896Z,33.60
2019-06-20T11:30:46.740Z,23.80
2019-06-20T11:32:11.686Z,23.20
2019-06-20T11:33:48.401Z,26.80
2019-06-20T11:35:24.420Z,32.60
2019-06-20T11:37:00.924Z,25.40
2019-06-20T11:38:39.052Z,20.60
2019-06-20T11:40:14.210Z,15.80
2019-06-20T11:41:52.505Z,19.20
2019-06-20T11:43:28.349Z,24.80
2019-06-20T11:45:08.270Z,20.80
2019-06-20T11:46:44.635Z,21.60
2019-06-20T11:48:22.010Z,37.00
2019-06-20T11:50:03.338Z,56.80
2019-06-20T11:51:43.589Z,68.50
2019-06-20T11:53:21.907Z,48.80
2019-06-20T11:54:58.166Z,33.40
2019-06-20T11:56:35.969Z,25.80
2019-06-20T11:58:13.798Z,17.80
2019-06-20T11:59:50.595Z,20.80
2019-06-20T12:01:33.446Z,4.20
2019-06-20T12:03:09.108Z,2.00
2019-06-20T12:04:57.270Z,2.00
2019-06-20T12:06:47.119Z,73.40
2019-06-20T12:08:31.688Z,359.14
2019-06-20T12:10:11.065Z,99.25
2019-06-20T12:11:48.886Z,50.60
2019-06-20T12:13:24.956Z,41.75
2019-06-20T12:15:01.254Z,1.00
2019-06-20T12:16:40.842Z,3.00
2019-06-20T12:18:17.177Z,0.20
2019-06-20T12:19:53.715Z,28.80
2019-06-20T12:21:30.344Z,26.60
2019-06-20T12:23:06.623Z,28.20
2019-06-20T12:24:44.706Z,44.20
2019-06-20T12:26:21.499Z,29.80
2019-06-20T12:27:59.419Z,47.60
2019-06-20T12:29:44.373Z,45.00
2019-06-20T12:31:20.105Z,47.00
2019-06-20T12:32:57.042Z,54.80
2019-06-20T12:34:33.726Z,55.20
2019-06-20T12:36:11.627Z,84.00
2019-06-20T12:37:49.839Z,59.60
2019-06-20T12:39:26.475Z,67.20
2019-06-20T12:41:03.792Z,54.40
2019-06-20T12:42:42.972Z,66.40
2019-06-20T12:44:19.881Z,47.60
2019-06-20T12:45:56.819Z,41.00
2019-06-20T12:47:32.980Z,39.00
2019-06-20T12:49:09.955Z,42.40
2019-06-20T12:50:49.540Z,39.20
2019-06-20T12:52:25.954Z,40.20
2019-06-20T12:54:04.599Z,43.20
2019-06-20T12:55:42.355Z,44.00
2019-06-20T12:57:18.974Z,41.80
2019-06-20T12:59:00.221Z,35.60
2019-06-20T13:00:37.655Z,34.00
2019-06-20T13:02:15.754Z,34.00
2019-06-20T13:03:55.768Z,29.00
2019-06-20T13:05:34.230Z,24.00
2019-06-20T13:07:10.861Z,24.20
2019-06-20T13:08:47.461Z,37.40
2019-06-20T13:10:22.857Z,24.60
2019-06-20T13:12:01.298Z,21.80
2019-06-20T13:13:40.539Z,27.40
2019-06-20T13:15:21.600Z,29.40
2019-06-20T13:16:57.695Z,27.20
2019-06-20T13:18:37.579Z,1.80
2019-06-20T13:20:20.035Z,0.00
2019-06-20T13:22:00.314Z,8.00
2019-06-20T13:23:37.038Z,86.20
2019-06-20T13:25:12.348Z,251.43
2019-06-20T13:26:49.013Z,268.33
2019-06-20T13:28:27.894Z,98.00
2019-06-20T13:30:11.887Z,53.83
2019-06-20T13:32:01.857Z,46.20
2019-06-20T13:33:26.066Z,34.20
2019-06-20T13:35:03.014Z,38.40
2019-06-20T13:36:42.888Z,37.40
2019-06-20T13:38:20.099Z,58.60
2019-06-20T13:39:57.220Z,57.40
2019-06-20T13:41:34.926Z,60.50
2019-06-20T13:43:11.228Z,68.00
2019-06-20T13:44:46.690Z,60.50
2019-06-20T13:46:27.196Z,59.00
2019-06-20T13:48:10.409Z,71.75
2019-06-20T13:49:54.555Z,70.60
2019-06-20T13:51:33.529Z,75.80
2019-06-20T13:53:10.691Z,82.00
2019-06-20T13:54:50.310Z,71.00
2019-06-20T13:56:28.240Z,85.75
2019-06-20T13:58:11.721Z,93.25
2019-06-20T13:59:51.100Z,100.40
2019-06-20T14:01:40.134Z,86.00
2019-06-20T14:03:11.202Z,97.00
2019-06-20T14:04:50.722Z,90.20
2019-06-20T14:06:27.050Z,98.00
2019-06-20T14:08:02.730Z,79.80
2019-06-20T14:09:44.651Z,90.20
2019-06-20T14:11:20.178Z,83.00
2019-06-20T14:12:56.296Z,65.00
2019-06-20T14:14:34.488Z,75.80
2019-06-20T14:16:10.889Z,61.60
2019-06-20T14:17:47.275Z,86.00
2019-06-20T14:19:23.703Z,63.80
2019-06-20T14:21:00.066Z,70.75
2019-06-20T14:22:36.291Z,69.50
2019-06-20T14:24:12.143Z,72.25
2019-06-20T14:25:51.430Z,64.40
2019-06-20T14:27:28.987Z,51.00
2019-06-20T14:29:05.469Z,48.40
2019-06-20T14:30:50.359Z,51.50
2019-06-20T14:32:32.024Z,153.60
2019-06-20T14:34:23.090Z,194.80
2019-06-20T14:36:01.644Z,196.33
2019-06-20T14:37:43.419Z,194.50
2019-06-20T14:39:17.996Z,177.17
2019-06-20T14:40:54.564Z,168.67
2019-06-20T14:42:30.091Z,108.60
2019-06-20T14:44:13.623Z,138.00
2019-06-20T14:45:50.757Z,112.40
2019-06-20T14:47:27.500Z,134.00
2019-06-20T14:49:02.808Z,115.20
2019-06-20T14:50:40.321Z,118.40
2019-06-20T14:52:16.693Z,122.40
2019-06-20T14:53:54.575Z,110.40
2019-06-20T14:55:30.988Z,108.00
2019-06-20T14:57:06.830Z,97.20
2019-06-20T14:58:42.083Z,102.80
2019-06-20T15:00:20.557Z,89.75
2019-06-20T15:01:56.027Z,112.20
2019-06-20T15:03:32.052Z,110.20
2019-06-20T15:05:07.617Z,106.60
2019-06-20T15:06:44.949Z,105.40
2019-06-20T15:08:20.984Z,109.40
2019-06-20T15:09:58.355Z,104.00
2019-06-20T15:11:33.581Z,101.00
2019-06-20T15:13:09.960Z,96.40
2019-06-20T15:14:47.904Z,88.75
2019-06-20T15:16:24.034Z,97.80
2019-06-20T15:18:06.738Z,89.25
2019-06-20T15:19:44.906Z,87.00
2019-06-20T15:21:23.682Z,67.25
2019-06-20T15:23:05.626Z,72.00
2019-06-20T15:24:44.959Z,85.60
2019-06-20T15:26:18.920Z,78.20
2019-06-20T15:27:55.784Z,75.20
2019-06-20T15:29:32.511Z,61.20
2019-06-20T15:31:13.123Z,72.40
2019-06-20T15:33:04.063Z,78.75
2019-06-20T15:34:28.990Z,75.80
2019-06-20T15:36:05.134Z,70.25
2019-06-20T15:37:43.262Z,72.40
2019-06-20T15:39:20.615Z,72.40
2019-06-20T15:41:00.278Z,78.00
2019-06-20T15:42:47.100Z,83.40
2019-06-20T15:44:23.457Z,70.20
2019-06-20T15:46:04.555Z,73.00
2019-06-20T15:47:40.982Z,77.00
2019-06-20T15:49:16.622Z,75.60
2019-06-20T15:50:52.621Z,82.80
2019-06-20T15:52:29.325Z,74.80
2019-06-20T15:54:05.478Z,82.00
2019-06-20T15:55:40.810Z,59.25
2019-06-20T15:57:17.744Z,61.50
2019-06-20T15:58:53.133Z,69.60
2019-06-20T16:00:29.053Z,69.40
2019-06-20T16:02:04.610Z,81.00
2019-06-20T16:03:40.411Z,64.25
2019-06-20T16:05:15.779Z,65.75
2019-06-20T16:06:52.179Z,64.00
2019-06-20T16:08:29.149Z,65.25
2019-06-20T16:10:05.025Z,80.60
2019-06-20T16:11:40.289Z,68.20
2019-06-20T16:13:21.864Z,72.00
2019-06-20T16:14:59.173Z,72.50
2019-06-20T16:16:44.698Z,92.00
2019-06-20T16:18:29.653Z,91.00
2019-06-20T16:20:05.660Z,77.25
2019-06-20T16:21:41.727Z,79.40
2019-06-20T16:23:20.415Z,75.00
2019-06-20T16:24:55.939Z,73.60
2019-06-20T16:26:36.106Z,77.80
2019-06-20T16:28:16.063Z,87.00
2019-06-20T16:29:54.272Z,91.20
2019-06-20T16:31:29.667Z,95.50
2019-06-20T16:33:05.414Z,87.00
2019-06-20T16:34:42.932Z,89.25
2019-06-20T16:36:20.617Z,86.50
2019-06-20T16:37:55.911Z,96.40
2019-06-20T16:39:35.305Z,85.25
2019-06-20T16:41:10.566Z,90.20
2019-06-20T16:42:46.668Z,89.60
2019-06-20T16:44:22.836Z,96.20
2019-06-20T16:45:59.367Z,97.00
2019-06-20T16:47:34.757Z,102.80
2019-06-20T16:49:16.369Z,89.50
2019-06-20T16:50:55.938Z,94.40
2019-06-20T16:52:32.402Z,115.00
2019-06-20T16:54:07.801Z,102.60
2019-06-20T16:55:43.540Z,110.00
2019-06-20T16:57:19.439Z,105.60
2019-06-20T16:58:56.246Z,119.00
2019-06-20T17:00:33.922Z,110.60
2019-06-20T17:02:09.780Z,99.20
2019-06-20T17:03:55.859Z,82.75
2019-06-20T17:05:32.680Z,95.00
2019-06-20T17:07:09.429Z,94.20
2019-06-20T17:08:45.151Z,97.60
2019-06-20T17:10:21.289Z,130.80
2019-06-20T17:11:57.571Z,62.00
2019-06-20T17:13:34.114Z,49.00
2019-06-20T17:15:12.967Z,12.00
2019-06-20T17:16:48.877Z,2.00
2019-06-20T17:18:24.909Z,2.40
2019-06-20T17:20:06.248Z,7.40
2019-06-20T17:21:45.201Z,33.40
2019-06-20T17:23:21.534Z,44.80
2019-06-20T17:25:06.702Z,49.40
2019-06-20T17:26:43.915Z,41.60
2019-06-20T17:28:22.168Z,42.80
2019-06-20T17:29:57.860Z,54.00
2019-06-20T17:31:34.446Z,62.00
2019-06-20T17:33:18.327Z,45.80
2019-06-20T17:34:58.057Z,57.80
2019-06-20T17:36:37.545Z,54.40
2019-06-20T17:38:16.116Z,53.60
2019-06-20T17:39:54.116Z,51.40
2019-06-20T17:41:31.428Z,50.20
2019-06-20T17:43:09.526Z,54.60
2019-06-20T17:44:47.759Z,52.20
2019-06-20T17:46:24.171Z,49.20
2019-06-20T17:48:01.422Z,52.60
2019-06-20T17:49:37.580Z,54.20
2019-06-20T17:51:15.022Z,56.20
2019-06-20T17:52:51.359Z,62.00
2019-06-20T17:54:28.266Z,59.40
2019-06-20T17:56:06.976Z,50.20
2019-06-20T17:57:43.760Z,41.40
2019-06-20T17:59:22.863Z,35.00
2019-06-20T18:00:59.187Z,1.60
2019-06-20T18:02:35.760Z,2.00
2019-06-20T18:04:32.562Z,2.00
2019-06-20T18:06:14.701Z,52.80
2019-06-20T18:07:51.421Z,85.20
2019-06-20T18:09:26.957Z,60.80
2019-06-20T18:11:03.800Z,46.00
2019-06-20T18:12:38.960Z,11.00
2019-06-20T18:14:18.411Z,1.25
2019-06-20T18:15:54.043Z,3.00
2019-06-20T18:17:31.875Z,1.00
2019-06-20T18:19:11.542Z,14.60
2019-06-20T18:20:54.954Z,17.60
2019-06-20T18:22:33.498Z,3.80
2019-06-20T18:24:10.515Z,2.40
2019-06-20T18:25:46.304Z,2.00
2019-06-20T18:27:24.007Z,2.00
2019-06-20T18:28:59.899Z,2.25
2019-06-20T18:30:44.875Z,2.50
2019-06-20T18:32:21.292Z,25.00
2019-06-20T18:33:56.905Z,53.00
2019-06-20T18:35:32.786Z,46.60
2019-06-20T18:37:09.139Z,90.00
2019-06-20T18:38:58.251Z,90.25
2019-06-20T18:40:34.997Z,131.20
2019-06-20T18:42:10.438Z,140.00
2019-06-20T18:43:50.584Z,133.20
2019-06-20T18:45:29.287Z,113.40
2019-06-20T18:47:11.943Z,131.20
2019-06-20T18:48:48.482Z,135.67
2019-06-20T18:50:26.497Z,102.60
2019-06-20T18:52:03.630Z,84.75
2019-06-20T18:53:43.116Z,109.40
2019-06-20T18:55:19.415Z,110.80
2019-06-20T18:56:55.889Z,119.33
2019-06-20T18:58:32.102Z,123.80
2019-06-20T19:00:33.563Z,132.17
2019-06-20T19:01:57.781Z,177.80
2019-06-20T19:03:34.001Z,207.50
2019-06-20T19:05:11.556Z,217.40
2019-06-20T19:06:49.488Z,164.67
2019-06-20T19:08:28.552Z,150.00
2019-06-20T19:10:06.609Z,134.50
2019-06-20T19:11:47.998Z,138.00
2019-06-20T19:13:24.093Z,140.40
2019-06-20T19:15:07.793Z,112.00
2019-06-20T19:16:43.942Z,113.50
2019-06-20T19:18:23.374Z,111.00
2019-06-20T19:19:59.377Z,109.17
2019-06-20T19:21:36.016Z,104.50
2019-06-20T19:23:11.532Z,96.80
2019-06-20T19:24:49.458Z,104.00
2019-06-20T19:26:25.762Z,104.67
2019-06-20T19:28:02.643Z,95.00
2019-06-20T19:29:39.317Z,97.80
2019-06-20T19:31:17.258Z,95.00
2019-06-20T19:32:54.719Z,91.20
2019-06-20T19:34:31.283Z,46.00
2019-06-20T19:36:08.954Z,98.80
2019-06-20T19:37:47.727Z,99.80
2019-06-20T19:39:31.159Z,98.00
2019-06-20T19:41:07.490Z,94.40
2019-06-20T19:42:57.621Z,86.17
2019-06-20T19:44:39.598Z,88.67
2019-06-20T19:46:17.978Z,85.50
2019-06-20T19:47:53.803Z,91.40
2019-06-20T19:49:40.704Z,101.20
2019-06-20T19:51:27.683Z,92.20
2019-06-20T19:53:03.757Z,91.60
2019-06-20T19:54:40.326Z,78.67
2019-06-20T19:56:16.779Z,81.83
2019-06-20T19:57:52.802Z,84.67
2019-06-20T19:59:29.658Z,82.20
2019-06-20T20:01:05.087Z,96.20
2019-06-20T20:02:43.780Z,97.20
2019-06-20T20:04:21.679Z,100.80
2019-06-20T20:05:59.299Z,95.20
2019-06-20T20:07:36.199Z,97.00
2019-06-20T20:09:12.985Z,99.60
2019-06-20T20:10:49.657Z,90.60
2019-06-20T20:12:29.446Z,91.60
2019-06-20T20:14:08.135Z,88.80
2019-06-20T20:15:44.020Z,92.60
2019-06-20T20:17:23.920Z,86.80
2019-06-20T20:19:00.170Z,94.60
2019-06-20T20:20:41.449Z,88.80
2019-06-20T20:22:20.822Z,107.20
2019-06-20T20:23:58.025Z,101.80
2019-06-20T20:25:36.323Z,94.80
2019-06-20T20:27:17.214Z,99.20
2019-06-20T20:28:54.608Z,92.80
2019-06-20T20:30:35.162Z,105.00
2019-06-20T20:32:13.221Z,105.40
2019-06-20T20:34:00.665Z,110.17
2019-06-20T20:35:40.430Z,105.60
2019-06-20T20:37:17.578Z,113.83
2019-06-20T20:38:57.909Z,92.00
2019-06-20T20:40:38.637Z,96.40
2019-06-20T20:42:17.741Z,107.67
2019-06-20T20:43:52.865Z,104.83